createdAt,value
2019-02-28T00:00:11.207Z,66.33
2019-02-28T00:01:12.782Z,66.80
2019-02-28T00:02:11.202Z,66.49
2019-02-28T00:03:11.184Z,66.90
2019-02-28T00:04:11.181Z,67.00
2019-02-28T00:05:11.179Z,67.00
2019-02-28T00:06:12.668Z,67.00
2019-02-28T00:07:11.156Z,66.71
2019-02-28T00:08:11.146Z,66.52
2019-02-28T00:09:11.144Z,66.71
2019-02-28T00:10:11.136Z,66.52
2019-02-28T00:11:11.130Z,66.61
2019-02-28T00:12:13.530Z,66.90
2019-02-28T00:13:11.112Z,66.33
2019-02-28T00:14:11.104Z,66.05
2019-02-28T00:15:11.100Z,66.33
2019-02-28T00:16:11.089Z,66.71
2019-02-28T00:17:11.087Z,66.80
2019-02-28T00:18:11.075Z,66.61
2019-02-28T00:19:11.068Z,67.38
2019-02-28T00:20:11.059Z,67.09
2019-02-28T00:21:11.056Z,66.61
2019-02-28T00:22:11.393Z,66.61
2019-02-28T00:23:11.038Z,66.52
2019-02-28T00:24:11.034Z,66.71
2019-02-28T00:25:11.042Z,66.90
2019-02-28T00:26:11.571Z,66.61
2019-02-28T00:27:11.010Z,67.47
2019-02-28T00:28:11.006Z,67.57
2019-02-28T00:29:10.996Z,67.44
2019-02-28T00:30:10.986Z,67.38
2019-02-28T00:31:14.393Z,67.66
2019-02-28T00:32:10.980Z,67.19
2019-02-28T00:33:10.966Z,67.57
2019-02-28T00:34:10.960Z,67.38
2019-02-28T00:35:13.509Z,67.85
2019-02-28T00:36:10.943Z,67.09
2019-02-28T00:37:10.937Z,67.82
2019-02-28T00:38:10.928Z,67.76
2019-02-28T00:39:10.931Z,67.66
2019-02-28T00:40:10.911Z,67.57
2019-02-28T00:41:10.908Z,67.82
2019-02-28T00:42:10.899Z,67.82
2019-02-28T00:43:10.893Z,68.01
2019-02-28T00:44:10.887Z,68.42
2019-02-28T00:45:10.876Z,68.33
2019-02-28T00:46:11.027Z,68.01
2019-02-28T00:47:10.864Z,68.13
2019-02-28T00:48:10.855Z,68.33
2019-02-28T00:49:10.846Z,68.23
2019-02-28T00:50:10.839Z,68.52
2019-02-28T00:51:10.833Z,68.01
2019-02-28T00:52:10.831Z,68.33
2019-02-28T00:53:10.815Z,68.33
2019-02-28T00:54:10.811Z,68.39
2019-02-28T00:55:10.803Z,68.29
2019-02-28T00:56:10.793Z,68.04
2019-02-28T00:57:10.790Z,68.33
2019-02-28T00:58:10.782Z,68.29
2019-02-28T00:59:10.775Z,68.90
2019-02-28T01:00:10.764Z,68.86
2019-02-28T01:01:11.542Z,68.86
2019-02-28T01:02:10.754Z,68.67
2019-02-28T01:03:10.745Z,68.99
2019-02-28T01:04:10.733Z,68.71
2019-02-28T01:05:10.730Z,68.80
2019-02-28T01:06:10.721Z,68.80
2019-02-28T01:07:13.294Z,68.71
2019-02-28T01:08:10.705Z,68.99
2019-02-28T01:09:10.697Z,68.99
2019-02-28T01:10:10.691Z,68.90
2019-02-28T01:11:13.228Z,68.71
2019-02-28T01:12:10.681Z,68.80
2019-02-28T01:13:10.669Z,68.71
2019-02-28T01:14:10.668Z,68.61
2019-02-28T01:15:10.773Z,68.61
2019-02-28T01:16:10.646Z,68.61
2019-02-28T01:17:10.644Z,68.52
2019-02-28T01:18:10.632Z,69.18
2019-02-28T01:19:10.626Z,68.90
2019-02-28T01:20:14.899Z,69.24
2019-02-28T01:21:10.610Z,69.09
2019-02-28T01:22:10.603Z,69.46
2019-02-28T01:23:10.597Z,69.24
2019-02-28T01:24:10.591Z,69.62
2019-02-28T01:25:10.586Z,69.62
2019-02-28T01:26:11.755Z,69.71
2019-02-28T01:27:10.565Z,69.46
2019-02-28T01:28:10.556Z,69.46
2019-02-28T01:29:10.550Z,69.46
2019-02-28T01:30:10.542Z,69.37
2019-02-28T01:31:11.663Z,69.46
2019-02-28T01:32:15.316Z,69.27
2019-02-28T01:33:10.519Z,69.27
2019-02-28T01:34:10.517Z,69.27
2019-02-28T01:35:10.505Z,69.94
2019-02-28T01:36:12.258Z,69.46
2019-02-28T01:37:10.490Z,69.56
2019-02-28T01:38:10.485Z,69.66
2019-02-28T01:39:10.475Z,69.85
2019-02-28T01:40:10.467Z,70.23
2019-02-28T01:41:11.196Z,70.13
2019-02-28T01:42:10.453Z,70.04
2019-02-28T01:43:10.447Z,70.13
2019-02-28T01:44:10.441Z,70.51
2019-02-28T01:45:11.006Z,70.51
2019-02-28T01:46:10.433Z,70.51
2019-02-28T01:47:10.415Z,70.13
2019-02-28T01:48:10.410Z,70.51
2019-02-28T01:49:10.399Z,70.51
2019-02-28T01:50:10.396Z,70.23
2019-02-28T01:51:10.386Z,70.99
2019-02-28T01:52:10.809Z,71.27
2019-02-28T01:53:10.369Z,70.61
2019-02-28T01:54:10.365Z,71.08
2019-02-28T01:55:10.356Z,71.37
2019-02-28T01:56:10.349Z,71.08
2019-02-28T01:57:10.339Z,70.79
2019-02-28T01:58:10.338Z,71.08
2019-02-28T01:59:10.326Z,70.99
2019-02-28T02:00:10.319Z,71.08
2019-02-28T02:01:10.306Z,71.27
2019-02-28T02:02:10.302Z,71.18
2019-02-28T02:03:10.295Z,71.46
2019-02-28T02:04:12.534Z,71.56
2019-02-28T02:05:10.280Z,72.13
2019-02-28T02:06:10.272Z,72.13
2019-02-28T02:07:10.266Z,72.22
2019-02-28T02:08:10.256Z,72.28
2019-02-28T02:09:11.067Z,72.22
2019-02-28T02:10:10.235Z,72.41
2019-02-28T02:11:10.233Z,72.32
2019-02-28T02:12:10.228Z,72.28
2019-02-28T02:13:10.224Z,71.90
2019-02-28T02:14:11.038Z,72.66
2019-02-28T02:15:10.203Z,72.56
2019-02-28T02:16:10.198Z,72.75
2019-02-28T02:17:10.191Z,72.38
2019-02-28T02:18:10.184Z,72.85
2019-02-28T02:19:10.175Z,73.42
2019-02-28T02:20:10.167Z,73.42
2019-02-28T02:21:10.163Z,73.33
2019-02-28T02:22:10.260Z,73.61
2019-02-28T02:23:10.144Z,73.42
2019-02-28T02:24:10.139Z,73.99
2019-02-28T02:25:10.133Z,73.99
2019-02-28T02:26:11.282Z,74.08
2019-02-28T02:27:10.120Z,73.90
2019-02-28T02:28:10.102Z,74.08
2019-02-28T02:29:10.104Z,74.08
2019-02-28T02:30:15.261Z,74.47
2019-02-28T02:31:10.084Z,74.47
2019-02-28T02:32:10.075Z,74.85
2019-02-28T02:33:13.683Z,74.56
2019-02-28T02:34:10.062Z,74.27
2019-02-28T02:35:10.054Z,74.94
2019-02-28T02:36:10.052Z,74.94
2019-02-28T02:37:10.039Z,75.04
2019-02-28T02:38:10.031Z,74.85
2019-02-28T02:39:16.396Z,75.51
2019-02-28T02:40:10.016Z,75.51
2019-02-28T02:41:10.009Z,75.70
2019-02-28T02:42:11.396Z,76.18
2019-02-28T02:43:09.993Z,75.42
2019-02-28T02:44:09.987Z,75.70
2019-02-28T02:45:09.980Z,75.42
2019-02-28T02:46:09.970Z,75.99
2019-02-28T02:47:09.963Z,75.70
2019-02-28T02:48:09.958Z,76.18
2019-02-28T02:49:09.944Z,76.18
2019-02-28T02:50:09.946Z,76.56
2019-02-28T02:51:11.118Z,76.46
2019-02-28T02:52:09.925Z,76.27
2019-02-28T02:53:09.911Z,76.84
2019-02-28T02:54:09.910Z,77.03
2019-02-28T02:55:09.901Z,76.65
2019-02-28T02:56:09.894Z,76.65
2019-02-28T02:57:13.873Z,76.37
2019-02-28T02:58:09.881Z,76.75
2019-02-28T02:59:09.871Z,77.03
2019-02-28T03:00:13.263Z,77.12
2019-02-28T03:01:09.857Z,77.51
2019-02-28T03:02:09.849Z,77.60
2019-02-28T03:03:09.843Z,77.70
2019-02-28T03:04:09.835Z,77.89
2019-02-28T03:05:09.830Z,77.79
2019-02-28T03:06:13.866Z,77.70
2019-02-28T03:07:09.812Z,77.70
2019-02-28T03:08:09.810Z,78.83
2019-02-28T03:09:11.063Z,78.74
2019-02-28T03:10:09.782Z,78.45
2019-02-28T03:11:09.779Z,78.17
2019-02-28T03:12:09.780Z,78.45
2019-02-28T03:13:09.762Z,77.89
2019-02-28T03:14:09.763Z,78.83
2019-02-28T03:15:09.748Z,78.83
2019-02-28T03:16:09.749Z,79.50
2019-02-28T03:17:11.513Z,79.50
2019-02-28T03:18:09.726Z,79.36
2019-02-28T03:19:09.716Z,79.69
2019-02-28T03:20:09.710Z,79.55
2019-02-28T03:21:09.703Z,79.74
2019-02-28T03:22:09.694Z,79.74
2019-02-28T03:23:09.690Z,79.69
2019-02-28T03:24:14.846Z,80.26
2019-02-28T03:25:09.674Z,80.07
2019-02-28T03:26:09.664Z,80.07
2019-02-28T03:27:09.659Z,80.55
2019-02-28T03:28:09.648Z,80.35
2019-02-28T03:29:09.646Z,80.26
2019-02-28T03:30:09.639Z,80.41
2019-02-28T03:31:14.142Z,80.32
2019-02-28T03:32:09.612Z,80.60
2019-02-28T03:33:23.932Z,80.79
2019-02-28T03:34:13.265Z,80.60
2019-02-28T03:35:09.591Z,80.41
2019-02-28T03:36:09.585Z,80.22
2019-02-28T03:37:09.575Z,80.60
2019-02-28T03:38:11.465Z,80.41
2019-02-28T03:39:09.560Z,81.07
2019-02-28T03:40:09.578Z,80.98
2019-02-28T03:41:16.102Z,80.79
2019-02-28T03:42:09.541Z,80.98
2019-02-28T03:43:09.527Z,81.26
2019-02-28T03:44:09.527Z,81.36
2019-02-28T03:45:09.514Z,81.17
2019-02-28T03:46:10.360Z,81.36
2019-02-28T03:47:09.519Z,81.45
2019-02-28T03:48:09.497Z,81.17
2019-02-28T03:49:11.393Z,81.65
2019-02-28T03:50:09.480Z,81.17
2019-02-28T03:51:09.464Z,81.74
2019-02-28T03:52:09.457Z,82.03
2019-02-28T03:53:09.448Z,81.93
2019-02-28T03:54:09.446Z,81.93
2019-02-28T03:55:09.431Z,81.84
2019-02-28T03:56:14.329Z,82.40
2019-02-28T03:57:09.423Z,82.03
2019-02-28T03:58:09.411Z,82.03
2019-02-28T03:59:09.403Z,82.59
2019-02-28T04:00:09.393Z,82.69
2019-02-28T04:01:10.377Z,82.59
2019-02-28T04:02:09.378Z,82.88
2019-02-28T04:03:09.372Z,82.97
2019-02-28T04:04:12.250Z,82.97
2019-02-28T04:05:09.360Z,83.54
2019-02-28T04:06:09.348Z,83.36
2019-02-28T04:07:15.709Z,83.26
2019-02-28T04:08:09.321Z,83.83
2019-02-28T04:09:09.325Z,83.73
2019-02-28T04:10:09.312Z,83.64
2019-02-28T04:11:09.311Z,83.83
2019-02-28T04:12:09.324Z,83.73
2019-02-28T04:13:09.289Z,83.83
2019-02-28T04:14:09.293Z,83.83
2019-02-28T04:15:10.212Z,84.11
2019-02-28T04:16:10.068Z,84.30
2019-02-28T04:17:09.264Z,83.92
2019-02-28T04:18:09.242Z,84.40
2019-02-28T04:19:09.240Z,84.30
2019-02-28T04:20:09.233Z,84.11
2019-02-28T04:21:10.746Z,84.68
2019-02-28T04:22:09.217Z,84.59
2019-02-28T04:23:09.207Z,84.87
2019-02-28T04:24:13.931Z,84.78
2019-02-28T04:25:09.201Z,84.78
2019-02-28T04:26:09.188Z,85.25
2019-02-28T04:27:09.177Z,85.35
2019-02-28T04:28:09.168Z,85.25
2019-02-28T04:29:09.173Z,84.87
2019-02-28T04:30:09.149Z,85.72
2019-02-28T04:31:09.152Z,85.16
2019-02-28T04:32:09.135Z,85.91
2019-02-28T04:33:09.128Z,85.53
2019-02-28T04:34:13.068Z,85.63
2019-02-28T04:35:09.111Z,85.72
2019-02-28T04:36:09.104Z,85.82
2019-02-28T04:37:09.719Z,86.11
2019-02-28T04:38:09.093Z,86.30
2019-02-28T04:39:09.073Z,86.39
2019-02-28T04:40:09.071Z,86.39
2019-02-28T04:41:09.065Z,86.49
2019-02-28T04:42:09.053Z,86.20
2019-02-28T04:43:10.103Z,86.39
2019-02-28T04:44:09.050Z,86.30
2019-02-28T04:45:09.029Z,86.96
2019-02-28T04:46:09.023Z,87.24
2019-02-28T04:47:09.020Z,86.68
2019-02-28T04:48:13.610Z,86.87
2019-02-28T04:49:08.994Z,87.24
2019-02-28T04:50:08.990Z,86.77
2019-02-28T04:51:08.981Z,87.11
2019-02-28T04:52:11.837Z,87.30
2019-02-28T04:53:08.986Z,87.43
2019-02-28T04:54:08.955Z,87.11
2019-02-28T04:55:08.948Z,87.43
2019-02-28T04:56:11.536Z,87.77
2019-02-28T04:57:08.933Z,87.87
2019-02-28T04:58:08.923Z,88.01
2019-02-28T04:59:08.915Z,87.96
2019-02-28T05:00:08.907Z,87.77
2019-02-28T05:01:09.231Z,88.48
2019-02-28T05:02:08.891Z,88.01
2019-02-28T05:03:08.882Z,88.95
2019-02-28T05:04:08.872Z,88.57
2019-02-28T05:05:12.173Z,88.76
2019-02-28T05:06:08.870Z,88.86
2019-02-28T05:07:08.849Z,88.76
2019-02-28T05:08:08.840Z,88.95
2019-02-28T05:09:10.736Z,89.24
2019-02-28T05:10:08.824Z,89.14
2019-02-28T05:11:08.818Z,89.43
2019-02-28T05:12:08.806Z,89.33
2019-02-28T05:13:11.395Z,89.24
2019-02-28T05:14:08.790Z,89.33
2019-02-28T05:15:08.782Z,90.28
2019-02-28T05:16:09.305Z,90.00
2019-02-28T05:17:08.765Z,89.72
2019-02-28T05:18:08.760Z,90.47
2019-02-28T05:19:08.751Z,90.09
2019-02-28T05:20:11.033Z,90.38
2019-02-28T05:21:08.733Z,90.57
2019-02-28T05:22:08.725Z,89.90
2019-02-28T05:23:08.721Z,90.09
2019-02-28T05:24:08.743Z,89.62
2019-02-28T05:25:08.702Z,90.38
2019-02-28T05:26:08.691Z,90.38
2019-02-28T05:27:08.683Z,90.57
2019-02-28T05:28:08.674Z,90.57
2019-02-28T05:29:11.896Z,91.24
2019-02-28T05:30:08.657Z,91.04
2019-02-28T05:31:08.650Z,91.14
2019-02-28T05:32:08.646Z,90.95
2019-02-28T05:33:08.633Z,90.95
2019-02-28T05:34:08.628Z,90.95
2019-02-28T05:35:08.618Z,91.14
2019-02-28T05:36:08.609Z,91.14
2019-02-28T05:37:12.131Z,90.95
2019-02-28T05:38:08.592Z,91.71
2019-02-28T05:39:08.583Z,91.80
2019-02-28T05:40:08.574Z,91.80
2019-02-28T05:41:08.566Z,91.89
2019-02-28T05:42:08.562Z,92.18
2019-02-28T05:43:08.549Z,92.28
2019-02-28T05:44:08.541Z,92.56
2019-02-28T05:45:11.421Z,92.47
2019-02-28T05:46:08.528Z,92.37
2019-02-28T05:47:08.518Z,92.09
2019-02-28T05:48:08.507Z,92.18
2019-02-28T05:49:08.982Z,92.28
2019-02-28T05:50:08.491Z,92.47
2019-02-28T05:51:08.482Z,92.18
2019-02-28T05:52:08.477Z,93.23
2019-02-28T05:53:09.334Z,93.04
2019-02-28T05:54:08.457Z,93.41
2019-02-28T05:55:08.449Z,93.60
2019-02-28T05:56:08.444Z,93.51
2019-02-28T05:57:08.940Z,93.51
2019-02-28T05:58:08.423Z,93.99
2019-02-28T05:59:08.417Z,93.99
2019-02-28T06:00:08.409Z,93.89
2019-02-28T06:01:08.808Z,94.08
2019-02-28T06:02:08.392Z,94.27
2019-02-28T06:03:08.383Z,94.37
2019-02-28T06:04:08.373Z,94.37
2019-02-28T06:05:11.650Z,94.84
2019-02-28T06:06:08.357Z,94.65
2019-02-28T06:07:09.428Z,94.56
2019-02-28T06:08:08.341Z,95.41
2019-02-28T06:09:10.323Z,95.41
2019-02-28T06:10:08.326Z,95.51
2019-02-28T06:11:08.321Z,95.31
2019-02-28T06:12:09.556Z,95.51
2019-02-28T06:13:08.300Z,95.51
2019-02-28T06:14:08.296Z,94.84
2019-02-28T06:15:08.285Z,95.22
2019-02-28T06:16:11.193Z,94.65
2019-02-28T06:17:08.269Z,94.65
2019-02-28T06:18:08.259Z,95.22
2019-02-28T06:19:09.088Z,94.93
2019-02-28T06:20:08.246Z,95.36
2019-02-28T06:21:10.120Z,94.79
2019-02-28T06:22:08.224Z,94.51
2019-02-28T06:23:09.464Z,94.13
2019-02-28T06:24:08.207Z,94.32
2019-02-28T06:25:08.199Z,94.13
2019-02-28T06:26:08.190Z,94.23
2019-02-28T06:27:08.186Z,94.32
2019-02-28T06:28:08.213Z,93.56
2019-02-28T06:29:08.168Z,94.13
2019-02-28T06:30:08.842Z,94.51
2019-02-28T06:31:08.149Z,94.42
2019-02-28T06:32:08.147Z,94.51
2019-02-28T06:33:08.132Z,94.42
2019-02-28T06:34:08.615Z,94.03
2019-02-28T06:35:08.116Z,94.03
2019-02-28T06:36:08.113Z,94.32
2019-02-28T06:37:08.102Z,94.13
2019-02-28T06:38:08.093Z,94.51
2019-02-28T06:39:08.090Z,94.60
2019-02-28T06:40:08.074Z,94.60
2019-02-28T06:41:08.676Z,94.42
2019-02-28T06:42:08.057Z,94.98
2019-02-28T06:43:08.200Z,94.13
2019-02-28T06:44:08.043Z,94.42
2019-02-28T06:45:08.036Z,94.13
2019-02-28T06:46:08.714Z,94.32
2019-02-28T06:47:08.017Z,94.60
2019-02-28T06:48:08.013Z,94.03
2019-02-28T06:49:08.003Z,94.13
2019-02-28T06:50:07.994Z,93.65
2019-02-28T06:51:07.984Z,93.94
2019-02-28T06:52:07.982Z,94.03
2019-02-28T06:53:07.969Z,94.32
2019-02-28T06:54:08.777Z,94.51
2019-02-28T06:55:07.954Z,94.51
2019-02-28T06:56:07.945Z,94.32
2019-02-28T06:57:07.935Z,94.60
2019-02-28T06:58:07.928Z,95.08
2019-02-28T06:59:07.921Z,94.51
2019-02-28T07:00:10.376Z,94.42
2019-02-28T07:01:07.909Z,94.51
2019-02-28T07:02:08.944Z,94.32
2019-02-28T07:03:07.890Z,94.32
2019-02-28T07:04:07.878Z,94.42
2019-02-28T07:05:07.872Z,94.08
2019-02-28T07:06:07.866Z,94.03
2019-02-28T07:07:10.252Z,94.03
2019-02-28T07:08:07.845Z,94.56
2019-02-28T07:09:07.841Z,94.32
2019-02-28T07:10:09.700Z,93.89
2019-02-28T07:11:07.825Z,93.89
2019-02-28T07:12:07.815Z,93.60
2019-02-28T07:13:07.809Z,93.41
2019-02-28T07:14:12.956Z,93.32
2019-02-28T07:15:07.790Z,93.51
2019-02-28T07:16:07.794Z,93.13
2019-02-28T07:17:10.740Z,93.23
2019-02-28T07:18:07.767Z,93.51
2019-02-28T07:19:07.757Z,92.75
2019-02-28T07:20:09.595Z,92.75
2019-02-28T07:21:08.605Z,92.66
2019-02-28T07:22:07.734Z,92.75
2019-02-28T07:23:07.727Z,92.94
2019-02-28T07:24:07.725Z,92.46
2019-02-28T07:25:09.418Z,92.66
2019-02-28T07:26:07.702Z,92.66
2019-02-28T07:27:07.696Z,92.75
2019-02-28T07:28:07.693Z,92.75
2019-02-28T07:29:11.060Z,92.75
2019-02-28T07:30:07.674Z,92.66
2019-02-28T07:31:07.664Z,92.85
2019-02-28T07:32:07.655Z,92.75
2019-02-28T07:33:10.579Z,92.27
2019-02-28T07:34:07.639Z,92.37
2019-02-28T07:35:07.630Z,92.27
2019-02-28T07:36:09.595Z,92.27
2019-02-28T07:37:07.617Z,91.99
2019-02-28T07:38:07.609Z,92.37
2019-02-28T07:39:07.608Z,92.22
2019-02-28T07:40:07.589Z,92.46
2019-02-28T07:41:07.589Z,92.41
2019-02-28T07:42:07.577Z,92.22
2019-02-28T07:43:12.112Z,92.22
2019-02-28T07:44:07.560Z,92.70
2019-02-28T07:45:07.552Z,91.75
2019-02-28T07:46:08.734Z,92.03
2019-02-28T07:47:07.539Z,91.85
2019-02-28T07:48:07.529Z,91.75
2019-02-28T07:49:07.517Z,91.85
2019-02-28T07:50:07.716Z,92.51
2019-02-28T07:51:07.508Z,91.94
2019-02-28T07:52:07.498Z,91.85
2019-02-28T07:53:08.833Z,91.94
2019-02-28T07:54:07.482Z,92.13
2019-02-28T07:55:07.476Z,92.03
2019-02-28T07:56:07.900Z,91.66
2019-02-28T07:57:07.470Z,91.66
2019-02-28T07:58:07.456Z,92.03
2019-02-28T07:59:07.463Z,91.37
2019-02-28T08:00:07.436Z,91.37
2019-02-28T08:01:07.430Z,91.75
2019-02-28T08:02:07.428Z,91.94
2019-02-28T08:03:07.413Z,91.37
2019-02-28T08:04:07.406Z,91.75
2019-02-28T08:05:07.416Z,91.56
2019-02-28T08:06:07.392Z,91.85
2019-02-28T08:07:07.385Z,91.37
2019-02-28T08:08:07.381Z,91.37
2019-02-28T08:09:07.372Z,91.37
2019-02-28T08:10:07.362Z,91.66
2019-02-28T08:11:07.406Z,91.56
2019-02-28T08:12:07.345Z,91.56
2019-02-28T08:13:07.340Z,91.28
2019-02-28T08:14:09.204Z,91.85
2019-02-28T08:15:07.323Z,91.47
2019-02-28T08:16:07.315Z,91.37
2019-02-28T08:17:08.945Z,91.37
2019-02-28T08:18:07.298Z,91.47
2019-02-28T08:19:07.297Z,91.75
2019-02-28T08:20:07.285Z,91.51
2019-02-28T08:21:08.739Z,91.51
2019-02-28T08:22:07.271Z,91.56
2019-02-28T08:23:07.266Z,91.70
2019-02-28T08:24:07.260Z,91.42
2019-02-28T08:25:08.600Z,91.51
2019-02-28T08:26:07.252Z,91.99
2019-02-28T08:27:07.233Z,91.32
2019-02-28T08:28:07.227Z,91.22
2019-02-28T08:29:10.117Z,91.42
2019-02-28T08:30:07.209Z,91.42
2019-02-28T08:31:07.202Z,91.61
2019-02-28T08:32:08.227Z,91.32
2019-02-28T08:33:07.186Z,91.70
2019-02-28T08:34:07.182Z,91.61
2019-02-28T08:35:07.174Z,91.42
2019-02-28T08:36:11.402Z,91.51
2019-02-28T08:37:07.157Z,91.61
2019-02-28T08:38:07.155Z,91.03
2019-02-28T08:39:08.855Z,91.42
2019-02-28T08:40:07.135Z,91.32
2019-02-28T08:41:07.128Z,91.03
2019-02-28T08:42:07.120Z,90.84
2019-02-28T08:43:07.124Z,90.94
2019-02-28T08:44:07.107Z,91.03
2019-02-28T08:45:07.099Z,91.03
2019-02-28T08:46:10.782Z,90.75
2019-02-28T08:47:07.083Z,91.13
2019-02-28T08:48:07.076Z,91.22
2019-02-28T08:49:07.390Z,90.94
2019-02-28T08:50:07.062Z,90.66
2019-02-28T08:51:07.058Z,90.56
2019-02-28T08:52:07.051Z,90.66
2019-02-28T08:53:07.043Z,90.13
2019-02-28T08:54:07.034Z,90.08
2019-02-28T08:55:09.181Z,89.75
2019-02-28T08:56:07.019Z,89.84
2019-02-28T08:57:07.010Z,89.75
2019-02-28T08:58:07.008Z,89.23
2019-02-28T08:59:11.775Z,89.56
2019-02-28T09:00:06.989Z,89.27
2019-02-28T09:01:06.982Z,88.89
2019-02-28T09:02:06.977Z,89.37
2019-02-28T09:03:06.969Z,89.08
2019-02-28T09:04:06.961Z,88.89
2019-02-28T09:05:06.954Z,88.89
2019-02-28T09:06:07.506Z,88.99
2019-02-28T09:07:06.941Z,88.51
2019-02-28T09:08:06.933Z,88.23
2019-02-28T09:09:06.923Z,88.32
2019-02-28T09:10:11.720Z,88.04
2019-02-28T09:11:06.913Z,88.70
2019-02-28T09:12:06.906Z,88.04
2019-02-28T09:13:08.721Z,88.32
2019-02-28T09:14:06.891Z,88.79
2019-02-28T09:15:06.884Z,87.94
2019-02-28T09:16:06.877Z,88.23
2019-02-28T09:17:06.869Z,88.04
2019-02-28T09:18:07.403Z,88.04
2019-02-28T09:19:06.856Z,88.08
2019-02-28T09:20:07.531Z,87.70
2019-02-28T09:21:06.844Z,87.70
2019-02-28T09:22:06.837Z,87.23
2019-02-28T09:23:06.828Z,87.41
2019-02-28T09:24:09.460Z,87.13
2019-02-28T09:25:06.819Z,86.94
2019-02-28T09:26:06.810Z,86.55
2019-02-28T09:27:06.804Z,86.55
2019-02-28T09:28:06.794Z,87.51
2019-02-28T09:29:06.790Z,86.75
2019-02-28T09:30:06.782Z,86.94
2019-02-28T09:31:06.779Z,86.55
2019-02-28T09:32:06.768Z,86.46
2019-02-28T09:33:06.764Z,86.36
2019-02-28T09:34:06.755Z,86.46
2019-02-28T09:35:12.256Z,86.51
2019-02-28T09:36:06.743Z,86.12
2019-02-28T09:37:06.735Z,85.55
2019-02-28T09:38:13.008Z,85.55
2019-02-28T09:39:06.723Z,85.08
2019-02-28T09:40:06.720Z,84.41
2019-02-28T09:41:06.710Z,85.17
2019-02-28T09:42:06.706Z,84.60
2019-02-28T09:43:06.697Z,84.41
2019-02-28T09:44:07.166Z,84.41
2019-02-28T09:45:07.668Z,84.50
2019-02-28T09:46:06.675Z,84.12
2019-02-28T09:47:06.671Z,84.41
2019-02-28T09:48:06.666Z,84.12
2019-02-28T09:49:11.981Z,83.55
2019-02-28T09:50:06.653Z,83.74
2019-02-28T09:51:06.649Z,83.84
2019-02-28T09:52:07.324Z,83.26
2019-02-28T09:53:06.632Z,83.45
2019-02-28T09:54:06.627Z,83.17
2019-02-28T09:55:06.626Z,83.07
2019-02-28T09:56:09.281Z,83.45
2019-02-28T09:57:06.607Z,83.36
2019-02-28T09:58:06.605Z,83.45
2019-02-28T09:59:06.596Z,83.55
2019-02-28T10:00:11.627Z,83.55
2019-02-28T10:01:06.583Z,83.26
2019-02-28T10:02:08.413Z,83.26
2019-02-28T10:03:06.895Z,83.07
2019-02-28T10:04:06.564Z,84.12
2019-02-28T10:05:07.560Z,83.17
2019-02-28T10:06:06.556Z,83.31
2019-02-28T10:07:06.548Z,82.35
2019-02-28T10:08:07.177Z,82.54
2019-02-28T10:09:08.771Z,82.45
2019-02-28T10:10:06.531Z,82.31
2019-02-28T10:11:06.525Z,82.45
2019-02-28T10:12:07.823Z,82.35
2019-02-28T10:13:06.512Z,82.35
2019-02-28T10:14:06.509Z,82.54
2019-02-28T10:15:07.467Z,82.17
2019-02-28T10:16:06.494Z,82.17
2019-02-28T10:17:06.486Z,82.45
2019-02-28T10:18:06.509Z,82.17
2019-02-28T10:19:06.474Z,82.26
2019-02-28T10:20:06.468Z,82.07
2019-02-28T10:21:06.461Z,81.84
2019-02-28T10:22:06.458Z,82.07
2019-02-28T10:23:06.450Z,82.12
2019-02-28T10:24:06.441Z,82.31
2019-02-28T10:25:06.574Z,82.21
2019-02-28T10:26:06.428Z,82.12
2019-02-28T10:27:06.424Z,82.41
2019-02-28T10:28:06.418Z,81.55
2019-02-28T10:29:07.572Z,82.60
2019-02-28T10:30:06.404Z,82.31
2019-02-28T10:31:06.422Z,82.12
2019-02-28T10:32:08.956Z,82.12
2019-02-28T10:33:06.388Z,82.41
2019-02-28T10:34:06.388Z,82.07
2019-02-28T10:35:06.379Z,82.07
2019-02-28T10:36:09.239Z,81.68
2019-02-28T10:37:06.363Z,81.88
2019-02-28T10:38:06.358Z,81.30
2019-02-28T10:39:09.047Z,82.45
2019-02-28T10:40:06.345Z,82.26
2019-02-28T10:41:06.340Z,81.97
2019-02-28T10:42:06.334Z,81.78
2019-02-28T10:43:06.329Z,82.35
2019-02-28T10:44:06.319Z,82.35
2019-02-28T10:45:07.011Z,81.12
2019-02-28T10:46:06.310Z,81.59
2019-02-28T10:47:06.301Z,81.21
2019-02-28T10:48:06.297Z,81.02
2019-02-28T10:49:06.291Z,81.88
2019-02-28T10:50:06.286Z,81.97
2019-02-28T10:51:13.191Z,82.17
2019-02-28T10:52:06.273Z,82.45
2019-02-28T10:53:06.341Z,82.35
2019-02-28T10:54:06.262Z,81.49
2019-02-28T10:55:06.256Z,81.88
2019-02-28T10:56:06.249Z,81.68
2019-02-28T10:57:07.076Z,81.68
2019-02-28T10:58:06.238Z,82.26
2019-02-28T10:59:06.233Z,82.26
2019-02-28T11:00:06.227Z,81.30
2019-02-28T11:01:08.724Z,81.44
2019-02-28T11:02:06.213Z,81.44
2019-02-28T11:03:06.210Z,80.96
2019-02-28T11:04:07.482Z,80.58
2019-02-28T11:05:07.936Z,80.58
2019-02-28T11:06:06.191Z,80.68
2019-02-28T11:07:06.185Z,80.30
2019-02-28T11:08:06.178Z,80.30
2019-02-28T11:09:06.174Z,80.30
2019-02-28T11:10:06.167Z,80.58
2019-02-28T11:11:07.401Z,80.26
2019-02-28T11:12:06.155Z,81.02
2019-02-28T11:13:06.153Z,80.96
2019-02-28T11:14:06.147Z,80.77
2019-02-28T11:15:06.139Z,80.58
2019-02-28T11:16:06.132Z,80.49
2019-02-28T11:17:11.392Z,80.77
2019-02-28T11:18:09.766Z,80.87
2019-02-28T11:19:06.117Z,80.77
2019-02-28T11:20:06.113Z,80.68
2019-02-28T11:21:06.104Z,80.49
2019-02-28T11:22:06.104Z,79.82
2019-02-28T11:23:07.615Z,80.11
2019-02-28T11:24:06.108Z,80.20
2019-02-28T11:25:06.079Z,79.96
2019-02-28T11:26:06.401Z,79.48
2019-02-28T11:27:06.071Z,80.05
2019-02-28T11:28:06.066Z,79.57
2019-02-28T11:29:06.063Z,79.19
2019-02-28T11:30:07.386Z,79.86
2019-02-28T11:31:06.053Z,79.77
2019-02-28T11:32:06.046Z,79.77
2019-02-28T11:33:06.039Z,79.96
2019-02-28T11:34:06.030Z,79.10
2019-02-28T11:35:06.026Z,78.81
2019-02-28T11:36:07.414Z,79.15
2019-02-28T11:37:08.983Z,79.15
2019-02-28T11:38:06.008Z,79.91
2019-02-28T11:39:06.006Z,79.72
2019-02-28T11:40:08.548Z,79.91
2019-02-28T11:41:05.993Z,80.11
2019-02-28T11:42:05.987Z,80.01
2019-02-28T11:43:05.987Z,79.72
2019-02-28T11:44:05.977Z,79.44
2019-02-28T11:45:05.972Z,79.63
2019-02-28T11:46:05.968Z,79.91
2019-02-28T11:47:08.435Z,79.82
2019-02-28T11:48:05.956Z,80.20
2019-02-28T11:49:05.949Z,79.82
2019-02-28T11:50:07.769Z,79.82
2019-02-28T11:51:05.939Z,79.63
2019-02-28T11:52:05.935Z,80.11
2019-02-28T11:53:06.085Z,79.53
2019-02-28T11:54:05.922Z,79.35
2019-02-28T11:55:05.918Z,79.67
2019-02-28T11:56:05.912Z,79.86
2019-02-28T11:57:06.896Z,79.06
2019-02-28T11:58:05.902Z,79.53
2019-02-28T11:59:05.898Z,79.15
2019-02-28T12:00:05.891Z,79.28
2019-02-28T12:01:10.025Z,79.28
2019-02-28T12:02:05.881Z,78.62
2019-02-28T12:03:06.023Z,79.38
2019-02-28T12:04:05.867Z,79.00
2019-02-28T12:05:05.867Z,78.43
2019-02-28T12:06:06.897Z,78.62
2019-02-28T12:07:05.854Z,78.62
2019-02-28T12:08:09.232Z,78.23
2019-02-28T12:09:05.841Z,78.14
2019-02-28T12:10:05.836Z,78.52
2019-02-28T12:11:05.835Z,79.19
2019-02-28T12:12:07.352Z,78.91
2019-02-28T12:13:05.822Z,78.43
2019-02-28T12:14:06.382Z,79.10
2019-02-28T12:15:06.739Z,78.43
2019-02-28T12:16:05.802Z,78.52
2019-02-28T12:17:05.799Z,77.99
2019-02-28T12:18:05.797Z,77.42
2019-02-28T12:19:05.795Z,77.32
2019-02-28T12:20:05.783Z,77.61
2019-02-28T12:21:05.777Z,77.23
2019-02-28T12:22:05.774Z,77.09
2019-02-28T12:23:05.771Z,77.09
2019-02-28T12:24:05.765Z,77.13
2019-02-28T12:25:07.652Z,76.62
2019-02-28T12:26:05.754Z,76.62
2019-02-28T12:27:05.749Z,76.42
2019-02-28T12:28:06.729Z,76.71
2019-02-28T12:29:05.738Z,76.52
2019-02-28T12:30:05.731Z,76.42
2019-02-28T12:31:05.728Z,76.14
2019-02-28T12:32:08.063Z,76.81
2019-02-28T12:33:05.711Z,76.90
2019-02-28T12:34:05.713Z,76.81
2019-02-28T12:35:05.709Z,76.33
2019-02-28T12:36:05.703Z,76.33
2019-02-28T12:37:05.697Z,76.33
2019-02-28T12:38:05.695Z,76.23
2019-02-28T12:39:05.688Z,76.33
2019-02-28T12:40:07.419Z,76.56
2019-02-28T12:41:05.680Z,76.37
2019-02-28T12:42:05.672Z,76.08
2019-02-28T12:43:08.778Z,75.60
2019-02-28T12:44:05.667Z,75.89
2019-02-28T12:45:05.660Z,75.89
2019-02-28T12:46:05.656Z,76.46
2019-02-28T12:47:06.511Z,75.79
2019-02-28T12:48:05.641Z,74.93
2019-02-28T12:49:05.642Z,75.42
2019-02-28T12:50:05.633Z,75.70
2019-02-28T12:51:06.199Z,74.93
2019-02-28T12:52:05.621Z,75.98